Time;durP1;ratioP1;P1;durP2;ratioP2;P2;SDS_P1;SDS_P2;PMS_P1;PMS_P2;Temp;Humidity;BMP_temperature;BMP_pressure;BME280_temperature;BME280_humidity;BME280_pressure;Samples;Min_cycle;Max_cycle;Signal;HPM_P1;HPM_P2
2023/04/17 00:00:05;;;;;;;29.10;19.30;;;12.00;99.90;;;;;;6213435;23;20012;-85
2023/04/17 00:02:31;;;;;;;28.23;18.27;;;12.00;99.90;;;;;;6212412;23;20032;-85
2023/04/17 00:04:57;;;;;;;26.27;18.13;;;12.00;99.90;;;;;;6185994;23;20005;-86
2023/04/17 00:07:22;;;;;;;26.98;17.52;;;12.00;99.90;;;;;;6242246;23;20031;-83
2023/04/17 00:09:48;;;;;;;28.00;18.35;;;12.00;99.90;;;;;;6216481;23;20005;-83
2023/04/17 00:12:14;;;;;;;28.30;18.08;;;12.00;99.90;;;;;;6189684;23;20008;-83
2023/04/17 00:14:40;;;;;;;30.95;18.30;;;12.00;99.90;;;;;;6217005;23;20092;-84
2023/04/17 00:17:07;;;;;;;27.70;18.83;;;12.00;99.90;;;;;;6214943;23;20004;-84
2023/04/17 00:19:32;;;;;;;27.73;17.77;;;12.00;99.90;;;;;;6216187;23;20009;-84
2023/04/17 00:21:58;;;;;;;27.88;17.58;;;12.00;99.90;;;;;;6164887;23;20343;-86
2023/04/17 00:24:24;;;;;;;26.58;17.67;;;11.90;99.90;;;;;;6189885;23;20092;-85
2023/04/17 00:26:50;;;;;;;29.67;18.92;;;11.90;99.90;;;;;;6164930;23;20007;-86
2023/04/17 00:29:15;;;;;;;27.63;18.50;;;11.90;99.90;;;;;;6189454;23;20289;-84
2023/04/17 00:31:50;;;;;;;28.23;18.88;;;11.90;99.90;;;;;;6189666;23;20011;-85
2023/04/17 00:34:22;;;;;;;28.58;18.08;;;11.90;99.90;;;;;;6164889;23;20124;-84
2023/04/17 00:36:54;;;;;;;29.25;18.48;;;11.90;99.90;;;;;;6165037;23;20428;-84
2023/04/17 00:39:19;;;;;;;30.90;19.52;;;11.80;99.90;;;;;;6168220;23;20048;-86
2023/04/17 00:41:45;;;;;;;29.55;19.00;;;11.90;99.90;;;;;;6214821;23;20328;-85
2023/04/17 00:44:11;;;;;;;24.42;17.52;;;11.80;99.90;;;;;;6214342;23;20360;-85
2023/04/17 00:46:36;;;;;;;30.30;17.90;;;11.80;99.90;;;;;;6214848;23;20082;-85
2023/04/17 00:49:03;;;;;;;30.85;18.58;;;11.80;99.90;;;;;;6214367;23;20005;-85
2023/04/17 00:51:30;;;;;;;28.10;19.00;;;11.80;99.90;;;;;;6239727;23;20009;-86
2023/04/17 00:53:57;;;;;;;31.08;19.25;;;11.80;99.90;;;;;;6214593;23;20389;-85
2023/04/17 00:56:23;;;;;;;28.70;20.00;;;11.80;99.90;;;;;;6214620;23;20009;-85
2023/04/17 00:59:11;;;;;;;30.73;19.00;;;11.80;99.90;;;;;;6189300;23;20008;-84
2023/04/17 01:01:37;;;;;;;29.67;19.40;;;11.80;99.90;;;;;;6239665;23;20019;-86
2023/04/17 01:04:06;;;;;;;30.15;19.00;;;11.70;99.90;;;;;;6214245;23;20009;-84
2023/04/17 01:06:31;;;;;;;31.13;20.15;;;11.70;99.90;;;;;;6215682;23;20037;-83
2023/04/17 01:08:58;;;;;;;29.60;19.80;;;11.70;99.90;;;;;;6240157;23;20379;-83
2023/04/17 01:11:24;;;;;;;27.90;18.67;;;11.70;99.90;;;;;;6189635;23;20416;-83
2023/04/17 01:13:50;;;;;;;31.02;18.90;;;11.70;99.90;;;;;;6215655;23;20016;-90
2023/04/17 01:16:16;;;;;;;29.60;19.73;;;11.70;99.90;;;;;;6216311;23;20421;-90
2023/04/17 01:18:42;;;;;;;29.70;19.45;;;11.70;99.90;;;;;;6216186;23;20015;-92
2023/04/17 01:21:08;;;;;;;30.25;19.50;;;11.60;99.90;;;;;;6216305;23;20336;-91
2023/04/17 01:23:50;;;;;;;31.73;20.58;;;11.60;99.90;;;;;;6216598;23;20056;-91
2023/04/17 01:26:22;;;;;;;29.75;19.63;;;11.60;99.90;;;;;;6242672;23;20000;-91
2023/04/17 01:28:55;;;;;;;;;;;11.60;99.90;;;;;;6217217;23;20004;-86
2023/04/17 01:31:21;;;;;;;31.02;20.13;;;11.60;99.90;;;;;;6214356;23;19904;-86
2023/04/17 01:33:48;;;;;;;35.05;21.35;;;11.60;99.90;;;;;;6216183;23;20007;-86
2023/04/17 01:36:14;;;;;;;29.98;20.95;;;11.50;99.90;;;;;;6215653;23;20011;-87
2023/04/17 01:38:40;;;;;;;34.45;21.10;;;11.50;99.90;;;;;;6214400;23;20080;-87
2023/04/17 01:41:09;;;;;;;33.17;21.90;;;11.50;99.90;;;;;;6219363;23;20351;-86
2023/04/17 01:43:40;;;;;;;29.38;20.33;;;11.50;99.90;;;;;;6219245;23;20004;-87
2023/04/17 01:46:06;;;;;;;32.42;21.88;;;11.50;99.90;;;;;;6219268;23;20023;-86
2023/04/17 01:48:32;;;;;;;34.63;21.77;;;11.50;99.90;;;;;;6219091;23;20392;-85
2023/04/17 01:50:58;;;;;;;34.30;21.92;;;11.50;99.90;;;;;;6219230;23;20000;-86
2023/04/17 01:53:25;;;;;;;31.85;21.63;;;11.50;99.90;;;;;;6219547;23;20043;-83
2023/04/17 01:55:50;;;;;;;32.17;21.30;;;11.50;99.90;;;;;;6221004;23;20557;-83
2023/04/17 01:58:16;;;;;;;34.42;21.60;;;11.50;99.90;;;;;;6196128;23;20015;-86
2023/04/17 02:00:45;;;;;;;32.97;21.48;;;11.50;99.90;;;;;;6171079;23;20012;-86
2023/04/17 02:03:10;;;;;;;35.00;22.65;;;11.50;99.90;;;;;;6196556;23;20020;-92
2023/04/17 02:05:36;;;;;;;30.92;21.20;;;11.50;99.90;;;;;;6172528;23;20031;-92
2023/04/17 02:08:02;;;;;;;34.70;21.90;;;11.50;99.90;;;;;;6197341;23;20011;-91
2023/04/17 02:10:27;;;;;;;35.67;22.92;;;11.50;99.90;;;;;;6197537;23;20005;-92
2023/04/17 02:12:53;;;;;;;34.85;22.10;;;11.50;99.90;;;;;;6196898;23;20013;-91
2023/04/17 02:15:18;;;;;;;35.70;22.20;;;11.50;99.90;;;;;;6172367;23;20013;-92
2023/04/17 02:17:44;;;;;;;33.92;21.58;;;11.40;99.90;;;;;;6172384;23;20008;-92
2023/04/17 02:20:10;;;;;;;38.45;22.80;;;11.40;99.90;;;;;;6223167;23;20468;-91
2023/04/17 02:22:36;;;;;;;32.47;22.15;;;11.40;99.90;;;;;;6200619;23;20004;-91
2023/04/17 02:25:02;;;;;;;35.80;23.48;;;11.40;99.90;;;;;;6208452;23;20066;-87
2023/04/17 02:27:29;;;;;;;37.83;23.35;;;11.40;99.90;;;;;;6266750;23;20011;-88
2023/04/17 02:29:55;;;;;;;38.60;23.98;;;11.40;99.90;;;;;;6194640;23;19984;-87
2023/04/17 02:32:21;;;;;;;37.50;23.00;;;11.40;99.90;;;;;;6240714;23;20095;-84
2023/04/17 02:34:46;;;;;;;39.20;25.20;;;11.40;99.90;;;;;;6227180;23;20004;-83
2023/04/17 02:37:12;;;;;;;41.03;24.48;;;11.40;99.90;;;;;;6196980;23;20449;-87
2023/04/17 02:39:39;;;;;;;42.33;24.95;;;11.40;99.90;;;;;;6220846;23;20454;-86
2023/04/17 02:42:05;;;;;;;38.75;23.40;;;11.40;99.90;;;;;;6174836;23;20024;-83
2023/04/17 02:44:31;;;;;;;36.83;23.55;;;11.40;99.90;;;;;;6200534;23;20023;-86
2023/04/17 02:46:56;;;;;;;38.92;23.92;;;11.40;99.90;;;;;;6220764;23;20075;-85
2023/04/17 02:49:22;;;;;;;39.17;25.08;;;11.40;99.90;;;;;;6170481;23;20000;-85
2023/04/17 02:51:48;;;;;;;37.95;24.70;;;11.30;99.90;;;;;;6195693;23;20011;-85
2023/04/17 02:54:13;;;;;;;42.08;25.63;;;11.30;99.90;;;;;;6195884;23;20008;-85
2023/04/17 02:56:39;;;;;;;37.47;23.20;;;11.30;99.90;;;;;;6171055;23;20087;-83
2023/04/17 02:59:04;;;;;;;40.88;25.23;;;11.30;99.90;;;;;;6247305;23;20058;-87
2023/04/17 03:01:32;;;;;;;35.85;23.38;;;11.30;99.90;;;;;;6221642;23;20431;-90
2023/04/17 03:03:58;;;;;;;38.88;24.52;;;11.30;99.90;;;;;;6172629;23;20062;-90
2023/04/17 03:06:24;;;;;;;37.00;23.05;;;11.30;99.90;;;;;;6196307;23;20427;-90
2023/04/17 03:08:50;;;;;;;34.17;22.33;;;11.30;99.90;;;;;;6196844;23;20000;-90
2023/04/17 03:11:16;;;;;;;33.22;21.73;;;11.30;99.90;;;;;;6197062;23;20031;-91
2023/04/17 03:13:42;;;;;;;33.80;22.02;;;11.20;99.90;;;;;;6221827;23;20334;-91
2023/04/17 03:16:08;;;;;;;35.22;21.60;;;11.20;99.90;;;;;;6220500;23;20331;-84
2023/04/17 03:18:37;;;;;;;31.63;20.42;;;11.20;99.90;;;;;;6195211;23;20430;-86
2023/04/17 03:21:04;;;;;;;31.23;20.95;;;11.20;99.90;;;;;;6247069;23;20004;-86
2023/04/17 03:23:30;;;;;;;30.63;21.73;;;11.10;99.90;;;;;;6195187;23;20109;-85
2023/04/17 03:25:56;;;;;;;31.83;20.58;;;11.10;99.90;;;;;;6201965;23;20004;-87
2023/04/17 03:28:22;;;;;;;30.63;20.42;;;11.10;99.90;;;;;;6244400;23;20020;-86
2023/04/17 03:30:49;;;;;;;27.88;19.80;;;11.10;99.90;;;;;;6219579;23;20000;-87
2023/04/17 03:33:15;;;;;;;31.55;21.63;;;11.10;99.90;;;;;;6219759;23;20008;-86
2023/04/17 03:35:41;;;;;;;29.90;20.65;;;11.10;99.90;;;;;;6203629;23;20016;-92
2023/04/17 03:38:07;;;;;;;29.00;21.00;;;11.00;99.90;;;;;;6196255;23;20015;-91
2023/04/17 03:40:33;;;;;;;28.85;20.10;;;11.10;99.90;;;;;;6171250;23;20077;-91
2023/04/17 03:43:00;;;;;;;31.13;20.75;;;11.10;99.90;;;;;;6195688;23;20015;-86
2023/04/17 03:45:25;;;;;;;29.73;20.75;;;11.00;99.90;;;;;;6195643;23;20415;-91
2023/04/17 03:47:51;;;;;;;28.50;20.00;;;11.00;99.90;;;;;;6221236;23;20011;-91
2023/04/17 03:50:17;;;;;;;27.90;20.35;;;11.10;99.90;;;;;;6170811;23;20000;-85
2023/04/17 03:52:42;;;;;;;28.25;20.52;;;11.00;99.90;;;;;;6205309;23;20399;-83
2023/04/17 03:55:09;;;;;;;30.45;20.48;;;11.00;99.90;;;;;;6265203;23;20000;-83
2023/04/17 03:57:35;;;;;;;29.70;20.77;;;11.00;99.90;;;;;;6219572;23;20004;-84
2023/04/17 04:00:00;;;;;;;26.25;19.30;;;11.00;99.90;;;;;;6248526;23;20034;-84
2023/04/17 04:02:26;;;;;;;30.35;20.63;;;11.00;99.90;;;;;;6245474;23;20024;-84
2023/04/17 04:04:52;;;;;;;31.08;21.35;;;11.00;99.90;;;;;;6213199;23;20070;-87
2023/04/17 04:07:18;;;;;;;32.38;21.25;;;11.00;99.90;;;;;;6195193;23;20013;-87
2023/04/17 04:09:43;;;;;;;32.78;21.80;;;11.00;99.90;;;;;;6247353;23;20008;-92
2023/04/17 04:12:09;;;;;;;32.63;21.38;;;10.90;99.90;;;;;;6196202;23;20012;-91
2023/04/17 04:14:36;;;;;;;33.75;21.13;;;10.90;99.90;;;;;;6171540;23;20011;-91
2023/04/17 04:17:02;;;;;;;32.90;21.67;;;10.90;99.90;;;;;;6170622;23;20035;-87
2023/04/17 04:19:27;;;;;;;31.85;21.30;;;10.90;99.90;;;;;;6194992;23;20339;-87
2023/04/17 04:21:53;;;;;;;31.20;20.83;;;11.00;99.90;;;;;;6220709;23;20331;-86
2023/04/17 04:24:19;;;;;;;31.33;21.00;;;10.90;99.90;;;;;;6169777;23;20055;-86
2023/04/17 04:26:48;;;;;;;31.55;21.45;;;10.90;99.90;;;;;;6195482;23;20434;-86
2023/04/17 04:29:15;;;;;;;30.90;21.15;;;10.90;99.90;;;;;;6195422;23;20012;-86
2023/04/17 04:31:41;;;;;;;30.98;20.67;;;10.90;99.90;;;;;;6222811;23;20011;-87
2023/04/17 04:34:08;;;;;;;30.65;21.48;;;10.90;99.90;;;;;;6196994;23;20018;-90
2023/04/17 04:36:48;;;;;;;32.33;22.30;;;10.90;99.90;;;;;;6196191;23;20012;-90
2023/04/17 04:39:19;;;;;;;34.88;21.30;;;10.90;99.90;;;;;;6211668;23;20013;-90
2023/04/17 04:41:54;;;;;;;33.95;22.52;;;10.90;99.90;;;;;;6163566;23;20444;-91
2023/04/17 04:44:20;;;;;;;35.60;22.27;;;10.80;99.90;;;;;;6187677;23;20055;-91
2023/04/17 04:46:46;;;;;;;32.80;20.75;;;10.80;99.90;;;;;;6185788;23;20080;-84
2023/04/17 04:49:12;;;;;;;32.13;21.00;;;10.80;99.90;;;;;;6159785;23;20392;-87
2023/04/17 04:51:38;;;;;;;36.45;22.95;;;10.80;99.90;;;;;;6187279;23;20080;-91
2023/04/17 04:54:04;;;;;;;34.08;22.83;;;10.80;99.90;;;;;;6160794;23;20359;-91
2023/04/17 04:56:49;;;;;;;39.78;23.08;;;10.80;99.90;;;;;;6185765;23;20036;-92
2023/04/17 04:59:15;;;;;;;33.17;21.25;;;10.80;99.90;;;;;;6185799;23;20001;-91
2023/04/17 05:01:53;;;;;;;35.78;22.45;;;10.80;99.90;;;;;;6186048;23;20013;-90
2023/04/17 05:04:25;;;;;;;38.58;23.13;;;10.70;99.90;;;;;;6187448;23;20032;-91
2023/04/17 05:06:51;;;;;;;36.22;23.80;;;10.70;99.90;;;;;;6187343;23;20009;-87
2023/04/17 05:09:30;;;;;;;33.42;21.70;;;10.70;99.90;;;;;;6160493;23;20012;-86
2023/04/17 05:11:56;;;;;;;36.22;23.42;;;10.70;99.90;;;;;;6184532;23;20064;-87
2023/04/17 05:14:22;;;;;;;39.28;23.73;;;10.70;99.90;;;;;;6159578;23;20436;-87
2023/04/17 05:16:48;;;;;;;36.92;23.13;;;10.70;99.90;;;;;;6160918;23;20009;-87
2023/04/17 05:19:13;;;;;;;36.90;23.63;;;10.70;99.90;;;;;;6184124;23;20390;-86
2023/04/17 05:21:40;;;;;;;39.45;25.00;;;10.70;99.90;;;;;;6160527;23;20421;-86
2023/04/17 05:24:06;;;;;;;38.30;24.15;;;10.70;99.90;;;;;;6184205;23;20143;-83
2023/04/17 05:26:31;;;;;;;40.30;24.65;;;10.70;99.90;;;;;;6184286;23;20029;-85
2023/04/17 05:28:57;;;;;;;40.70;24.92;;;10.70;99.90;;;;;;6162619;23;20339;-83
2023/04/17 05:31:23;;;;;;;38.53;23.88;;;10.70;99.90;;;;;;6187701;23;20087;-84
2023/04/17 05:33:48;;;;;;;37.95;24.10;;;10.70;99.90;;;;;;6162361;23;20009;-85
2023/04/17 05:36:14;;;;;;;35.95;23.63;;;10.70;99.90;;;;;;6163820;23;20009;-87
2023/04/17 05:38:40;;;;;;;39.42;24.10;;;10.70;99.90;;;;;;6164775;23;20096;-86
2023/04/17 05:41:10;;;;;;;40.25;24.13;;;10.70;99.90;;;;;;6187521;23;20024;-86
2023/04/17 05:43:35;;;;;;;38.55;24.83;;;10.70;99.90;;;;;;6163820;23;20100;-86
2023/04/17 05:46:01;;;;;;;37.15;24.17;;;10.70;99.90;;;;;;6189438;23;20001;-85
2023/04/17 05:48:27;;;;;;;37.30;24.10;;;10.70;99.90;;;;;;6162564;23;20009;-86
2023/04/17 05:50:53;;;;;;;38.55;24.30;;;10.70;99.90;;;;;;6163525;23;20075;-87
2023/04/17 05:53:19;;;;;;;42.08;24.55;;;10.70;99.90;;;;;;6162857;23;20503;-87
2023/04/17 05:55:45;;;;;;;40.35;24.45;;;10.70;99.90;;;;;;6163373;23;20088;-92
2023/04/17 05:58:11;;;;;;;37.47;23.83;;;10.70;99.90;;;;;;6189197;23;20023;-87
2023/04/17 06:00:36;;;;;;;39.63;23.90;;;10.70;99.90;;;;;;6163010;23;20016;-87
2023/04/17 06:03:03;;;;;;;36.70;23.88;;;10.70;99.90;;;;;;6187470;23;20013;-85
2023/04/17 06:05:28;;;;;;;37.28;23.67;;;10.70;99.90;;;;;;6162635;23;20413;-84
2023/04/17 06:07:54;;;;;;;41.20;26.58;;;10.70;99.90;;;;;;6187491;23;20028;-85
2023/04/17 06:10:20;;;;;;;37.55;24.50;;;10.80;99.90;;;;;;6162911;23;20055;-84
2023/04/17 06:12:46;;;;;;;37.55;24.02;;;10.80;99.90;;;;;;6187515;23;20051;-84
2023/04/17 06:15:11;;;;;;;36.92;24.25;;;10.80;99.90;;;;;;6162979;23;20013;-86
2023/04/17 06:17:38;;;;;;;38.45;23.58;;;10.80;99.90;;;;;;6187674;23;20005;-86
2023/04/17 06:20:10;;;;;;;39.28;23.33;;;10.80;99.90;;;;;;6187728;23;20402;-86
2023/04/17 06:22:37;;;;;;;39.03;24.60;;;10.80;99.90;;;;;;6187973;23;20079;-86
2023/04/17 06:25:03;;;;;;;39.17;24.17;;;10.80;99.90;;;;;;6194199;23;20080;-84
2023/04/17 06:27:29;;;;;;;37.10;23.75;;;10.80;99.90;;;;;;6206896;23;19997;-84
2023/04/17 06:29:54;;;;;;;38.25;25.58;;;10.80;99.90;;;;;;6198027;23;20004;-86
2023/04/17 06:32:20;;;;;;;42.00;25.33;;;10.80;99.90;;;;;;6163897;23;20009;-88
2023/04/17 06:34:46;;;;;;;39.33;24.20;;;10.80;99.90;;;;;;6162329;23;20028;-87
2023/04/17 06:37:11;;;;;;;34.60;23.30;;;10.80;99.90;;;;;;6163292;23;20009;-87
2023/04/17 06:39:37;;;;;;;37.35;24.77;;;10.80;99.90;;;;;;6162174;23;20020;-87
2023/04/17 06:42:05;;;;;;;38.08;24.05;;;10.80;99.90;;;;;;6186769;23;20498;-91
2023/04/17 06:44:31;;;;;;;37.78;23.85;;;10.80;99.90;;;;;;6183807;23;20604;-86
2023/04/17 06:47:02;;;;;;;35.72;24.00;;;10.80;99.90;;;;;;6159107;23;20092;-87
2023/04/17 06:49:28;;;;;;;;;;;10.80;99.90;;;;;;6174117;23;20089;-86
2023/04/17 06:51:54;;;;;;;38.03;23.67;;;10.80;99.90;;;;;;6160604;23;19982;-87
2023/04/17 06:54:54;;;;;;;41.90;24.38;;;10.80;99.90;;;;;;6112244;23;20087;-88
2023/04/17 06:57:23;;;;;;;36.28;23.98;;;10.80;99.90;;;;;;6161397;23;20005;-87
2023/04/17 06:59:48;;;;;;;39.22;24.35;;;10.80;99.90;;;;;;6112168;23;20009;-84
2023/04/17 07:02:15;;;;;;;37.90;24.48;;;10.80;99.90;;;;;;6116792;23;20015;-88
2023/04/17 07:04:40;;;;;;;39.90;25.15;;;10.80;99.90;;;;;;6140110;23;20005;-87
2023/04/17 07:07:06;;;;;;;37.17;24.17;;;10.80;99.90;;;;;;6177497;23;20218;-87
2023/04/17 07:09:32;;;;;;;38.22;24.42;;;10.90;99.90;;;;;;6136458;23;20005;-83
2023/04/17 07:11:58;;;;;;;40.78;25.17;;;10.90;99.90;;;;;;6131112;23;20441;-85
2023/04/17 07:14:52;;;;;;;36.83;25.33;;;10.90;99.90;;;;;;6111984;23;20020;-84
2023/04/17 07:17:18;;;;;;;40.50;24.38;;;10.90;99.90;;;;;;6160944;23;20009;-85
2023/04/17 07:19:44;;;;;;;39.05;24.05;;;10.90;99.90;;;;;;6161413;23;20005;-92
2023/04/17 07:22:09;;;;;;;41.55;25.58;;;10.90;99.90;;;;;;6138653;23;20020;-92
2023/04/17 07:24:35;;;;;;;44.03;26.00;;;10.90;99.90;;;;;;6163246;23;20028;-91
2023/04/17 07:27:06;;;;;;;42.58;26.65;;;11.00;99.90;;;;;;6136559;23;20121;-87
2023/04/17 07:29:34;;;;;;;41.03;26.23;;;11.00;99.90;;;;;;6160788;23;20360;-88
2023/04/17 07:32:01;;;;;;;42.53;26.98;;;11.00;99.90;;;;;;6161370;23;20005;-87
2023/04/17 07:34:29;;;;;;;47.13;26.60;;;11.00;99.90;;;;;;6189469;23;20359;-85
2023/04/17 07:36:56;;;;;;;46.70;26.35;;;11.10;99.90;;;;;;6170501;23;20009;-93
2023/04/17 07:39:21;;;;;;;41.35;26.50;;;11.10;99.90;;;;;;6172962;23;20012;-91
2023/04/17 07:41:50;;;;;;;44.03;26.33;;;11.00;99.90;;;;;;6197699;23;20023;-91
2023/04/17 07:44:17;;;;;;;45.70;28.05;;;11.10;99.90;;;;;;6171336;23;20040;-84
2023/04/17 07:46:43;;;;;;;42.75;27.25;;;11.10;99.90;;;;;;6195602;23;20431;-84
2023/04/17 07:49:34;;;;;;;41.90;27.92;;;11.10;99.90;;;;;;6220854;23;20051;-84
2023/04/17 07:52:00;;;;;;;44.17;28.17;;;11.10;99.90;;;;;;6220611;23;20370;-93
2023/04/17 07:54:26;;;;;;;45.63;29.90;;;11.10;99.90;;;;;;6172908;23;20031;-92
2023/04/17 07:56:51;;;;;;;46.15;28.63;;;11.10;99.90;;;;;;6224105;23;20091;-92
2023/04/17 07:59:17;;;;;;;42.38;27.88;;;11.20;99.90;;;;;;6172303;23;20011;-92
2023/04/17 08:01:43;;;;;;;43.45;28.40;;;11.20;99.90;;;;;;6174235;23;20073;-86
2023/04/17 08:04:08;;;;;;;42.33;27.00;;;11.20;99.90;;;;;;6220695;23;20553;-86
2023/04/17 08:06:34;;;;;;;39.13;26.73;;;11.30;99.90;;;;;;6221390;23;20016;-87
2023/04/17 08:09:01;;;;;;;41.22;27.58;;;11.30;99.90;;;;;;6196623;23;20000;-92
2023/04/17 08:11:37;;;;;;;42.58;28.52;;;11.30;99.90;;;;;;6201972;23;20004;-91
2023/04/17 08:14:03;;;;;;;41.75;27.33;;;11.30;99.90;;;;;;6205671;23;20015;-89
2023/04/17 08:16:29;;;;;;;40.90;26.63;;;11.30;99.90;;;;;;6200793;23;20020;-90
2023/04/17 08:18:55;;;;;;;42.65;28.33;;;11.30;99.90;;;;;;6174813;23;20382;-91
2023/04/17 08:21:20;;;;;;;41.63;27.25;;;11.40;99.90;;;;;;6171392;23;20008;-85
2023/04/17 08:23:46;;;;;;;40.15;27.65;;;11.40;99.90;;;;;;6195045;23;20312;-85
2023/04/17 08:26:12;;;;;;;40.42;27.10;;;11.40;99.90;;;;;;6199252;23;20004;-83
2023/04/17 08:29:07;;;;;;;40.65;27.75;;;11.50;99.90;;;;;;6230830;23;20029;-83
2023/04/17 08:31:35;;;;;;;43.75;28.27;;;11.50;99.90;;;;;;6208118;23;20004;-83
2023/04/17 08:34:02;;;;;;;39.25;26.23;;;11.50;99.90;;;;;;6234639;23;20012;-84
2023/04/17 08:36:28;;;;;;;39.70;26.65;;;11.50;99.90;;;;;;6235861;23;20105;-84
2023/04/17 08:38:54;;;;;;;38.95;27.63;;;11.60;99.90;;;;;;6237229;23;20004;-84
2023/04/17 08:41:24;;;;;;;42.45;27.63;;;11.60;99.90;;;;;;6222593;23;20096;-86
2023/04/17 08:43:50;;;;;;;41.15;27.75;;;11.60;99.90;;;;;;6247069;23;20327;-87
2023/04/17 08:46:19;;;;;;;39.00;26.95;;;11.70;99.90;;;;;;6220216;23;19997;-85
2023/04/17 08:48:46;;;;;;;36.83;26.05;;;11.70;99.90;;;;;;6196027;23;20320;-85
2023/04/17 08:51:12;;;;;;;38.10;27.40;;;11.80;99.90;;;;;;6219707;23;20360;-85
2023/04/17 08:53:38;;;;;;;37.47;26.80;;;11.80;99.90;;;;;;6194829;23;20008;-86
2023/04/17 08:56:05;;;;;;;38.60;27.02;;;11.90;99.90;;;;;;6194725;23;20450;-86
2023/04/17 08:58:35;;;;;;;41.33;28.15;;;11.90;99.90;;;;;;6194505;23;20089;-85
2023/04/17 09:01:11;;;;;;;39.15;27.08;;;12.00;99.90;;;;;;6220173;23;20008;-83
2023/04/17 09:03:48;;;;;;;39.25;27.25;;;12.10;99.90;;;;;;6194836;23;20019;-84
2023/04/17 09:06:14;;;;;;;38.33;26.35;;;12.10;99.90;;;;;;6194624;23;20072;-83
2023/04/17 09:09:03;;;;;;;38.20;26.23;;;12.20;99.90;;;;;;6222366;23;20012;-95
2023/04/17 09:11:29;;;;;;;39.67;27.83;;;12.30;99.90;;;;;;6234161;23;20043;-93
2023/04/17 09:13:55;;;;;;;38.47;24.67;;;12.40;99.90;;;;;;6230353;23;19999;-87
2023/04/17 09:16:24;;;;;;;38.25;25.80;;;12.40;99.90;;;;;;6196526;23;20008;-93
2023/04/17 09:18:50;;;;;;;36.22;26.58;;;12.40;99.90;;;;;;6221362;23;20012;-88
2023/04/17 09:21:17;;;;;;;38.40;25.20;;;12.50;99.90;;;;;;6248293;23;20062;-94
2023/04/17 09:23:55;;;;;;;35.92;25.55;;;12.50;99.90;;;;;;6225071;23;20001;-93
2023/04/17 09:26:25;;;;;;;35.42;25.35;;;12.50;99.90;;;;;;6220041;23;20054;-87
2023/04/17 09:29:09;;;;;;;34.72;24.20;;;12.60;99.90;;;;;;6195310;23;20012;-87
2023/04/17 09:31:40;;;;;;;32.80;23.27;;;12.60;99.90;;;;;;6221602;23;20000;-86
2023/04/17 09:34:10;;;;;;;32.38;22.58;;;12.70;99.90;;;;;;6219844;23;20030;-83
2023/04/17 09:36:37;;;;;;;32.05;22.60;;;12.70;99.90;;;;;;6235332;23;20084;-83
2023/04/17 09:39:14;;;;;;;32.00;22.85;;;12.70;99.90;;;;;;6210869;23;20012;-84
2023/04/17 09:41:40;;;;;;;33.05;23.52;;;12.70;99.90;;;;;;6219492;23;20008;-84
2023/04/17 09:44:06;;;;;;;29.10;22.83;;;12.80;99.90;;;;;;6194431;23;20470;-82
2023/04/17 09:46:41;;;;;;;31.73;22.52;;;12.80;99.90;;;;;;6219687;23;20091;-84
2023/04/17 09:49:18;;;;;;;30.73;21.73;;;12.80;99.90;;;;;;6220465;23;20055;-94
2023/04/17 09:51:45;;;;;;;31.58;22.75;;;12.90;99.90;;;;;;6221786;23;20006;-94
2023/04/17 09:54:13;;;;;;;31.23;21.70;;;12.90;99.90;;;;;;6221710;23;20000;-94
2023/04/17 09:56:40;;;;;;;31.25;22.65;;;12.90;99.90;;;;;;6196945;23;20008;-94
2023/04/17 09:59:07;;;;;;;29.25;20.42;;;13.00;99.90;;;;;;6222055;23;20336;-93
2023/04/17 10:01:35;;;;;;;27.58;21.13;;;13.10;99.90;;;;;;6196416;23;20012;-94
2023/04/17 10:04:02;;;;;;;29.85;21.33;;;13.10;99.90;;;;;;6221823;23;20019;-93
2023/04/17 10:06:30;;;;;;;30.77;21.73;;;13.20;99.90;;;;;;6170152;23;20446;-88
2023/04/17 10:08:56;;;;;;;28.92;20.38;;;13.20;99.90;;;;;;6220002;23;20004;-86
2023/04/17 10:11:43;;;;;;;27.08;20.13;;;13.30;99.90;;;;;;6194620;23;20015;-88
2023/04/17 10:14:24;;;;;;;26.73;19.48;;;13.30;99.90;;;;;;6246495;23;20423;-88
2023/04/17 10:16:50;;;;;;;27.63;21.15;;;13.40;99.90;;;;;;6221305;23;20004;-88
2023/04/17 10:19:33;;;;;;;26.20;19.70;;;13.40;99.90;;;;;;6196901;23;20008;-83
2023/04/17 10:22:16;;;;;;;29.30;19.23;;;13.40;99.90;;;;;;6221146;23;20057;-88
2023/04/17 10:24:43;;;;;;;31.27;21.48;;;13.40;99.90;;;;;;6221585;23;20004;-85
2023/04/17 10:27:47;;;;;;;28.02;20.50;;;13.50;99.90;;;;;;6221959;23;20000;-85
2023/04/17 10:30:13;;;;;;;27.90;20.08;;;13.50;99.90;;;;;;6221375;23;20031;-88
2023/04/17 10:33:05;;;;;;;29.60;19.63;;;13.60;99.90;;;;;;6171536;23;20011;-87
2023/04/17 10:35:35;;;;;;;27.08;18.75;;;13.60;99.90;;;;;;6202604;23;20012;-87
2023/04/17 10:38:03;;;;;;;28.88;18.40;;;13.60;99.90;;;;;;6221706;23;20378;-87
2023/04/17 10:40:30;;;;;;;24.80;17.20;;;13.70;99.90;;;;;;6200768;23;20024;-83
2023/04/17 10:43:21;;;;;;;24.75;18.17;;;13.70;99.90;;;;;;6198597;23;20079;-87
2023/04/17 10:45:50;;;;;;;;;;;13.80;99.90;;;;;;6222768;23;20035;-83
2023/04/17 10:48:49;;;;;;;22.73;17.40;;;13.90;99.90;;;;;;6247727;23;19938;-83
2023/04/17 10:51:21;;;;;;;25.52;18.25;;;14.00;99.90;;;;;;6220750;23;20078;-84
2023/04/17 10:53:48;;;;;;;24.65;16.65;;;14.10;99.90;;;;;;6221316;23;20058;-84
2023/04/17 10:56:23;;;;;;;23.55;15.07;;;14.10;99.90;;;;;;6225877;23;20008;-84
2023/04/17 10:59:09;;;;;;;23.00;15.57;;;14.10;99.90;;;;;;6247532;23;20425;-84
2023/04/17 11:01:47;;;;;;;19.25;14.88;;;14.20;99.90;;;;;;6224356;23;20427;-84
2023/04/17 11:04:21;;;;;;;20.52;14.85;;;14.20;99.90;;;;;;6224275;23;20008;-86
2023/04/17 11:06:51;;;;;;;20.08;14.80;;;14.20;99.90;;;;;;6220809;23;20450;-87
2023/04/17 11:09:19;;;;;;;21.15;15.40;;;14.30;99.90;;;;;;6196475;23;20087;-85
2023/04/17 11:11:58;;;;;;;22.95;16.67;;;14.30;99.90;;;;;;6220639;23;20000;-85
2023/04/17 11:14:25;;;;;;;24.08;17.13;;;14.40;99.90;;;;;;6247887;23;20000;-86
2023/04/17 11:16:51;;;;;;;23.95;16.15;;;14.50;99.90;;;;;;6195758;23;20012;-87
2023/04/17 11:19:20;;;;;;;20.30;15.65;;;14.60;99.90;;;;;;6196376;23;20031;-86
2023/04/17 11:21:49;;;;;;;20.35;15.07;;;14.70;99.90;;;;;;6195832;23;20016;-86
2023/04/17 11:24:25;;;;;;;24.13;16.23;;;14.80;99.90;;;;;;6221939;23;20008;-92
2023/04/17 11:26:51;;;;;;;21.48;14.57;;;14.90;99.90;;;;;;6221779;23;20101;-93
2023/04/17 11:29:21;;;;;;;21.67;13.90;;;15.00;99.90;;;;;;6196981;23;20015;-85
2023/04/17 11:31:50;;;;;;;16.95;12.77;;;15.10;99.90;;;;;;6220838;23;20023;-86
2023/04/17 11:34:17;;;;;;;18.50;13.20;;;15.20;99.90;;;;;;6220966;23;20383;-85
2023/04/17 11:36:56;;;;;;;19.77;13.70;;;15.30;99.90;;;;;;6220646;23;20008;-85
2023/04/17 11:39:23;;;;;;;17.27;12.30;;;15.40;99.90;;;;;;6247629;23;20005;-86
2023/04/17 11:41:51;;;;;;;20.00;12.85;;;15.50;99.90;;;;;;6242526;23;20039;-92
2023/04/17 11:44:21;;;;;;;19.23;14.50;;;15.50;99.90;;;;;;6221611;23;20064;-92
2023/04/17 11:46:55;;;;;;;17.90;13.63;;;15.60;99.90;;;;;;6181351;23;20005;-84
2023/04/17 11:49:47;;;;;;;17.73;13.15;;;15.60;99.90;;;;;;6223556;23;20428;-91
2023/04/17 11:52:14;;;;;;;18.23;13.75;;;15.70;99.90;;;;;;6218165;23;20008;-91
2023/04/17 11:54:40;;;;;;;17.70;12.70;;;15.80;99.90;;;;;;6209345;23;20074;-89
2023/04/17 11:57:11;;;;;;;17.98;12.55;;;15.80;99.90;;;;;;6181879;23;20412;-92
2023/04/17 11:59:39;;;;;;;16.60;12.85;;;15.90;99.90;;;;;;6222302;23;20016;-92
2023/04/17 12:02:06;;;;;;;22.73;13.57;;;16.00;99.90;;;;;;6196470;23;20004;-83
2023/04/17 12:04:33;;;;;;;19.75;13.68;;;16.10;99.90;;;;;;6240894;23;20012;-83
2023/04/17 12:07:06;;;;;;;17.85;13.25;;;16.10;99.90;;;;;;6241606;23;20063;-84
2023/04/17 12:09:33;;;;;;;16.00;12.82;;;16.20;99.90;;;;;;6204250;23;20065;-92
2023/04/17 12:12:08;;;;;;;21.63;14.02;;;16.30;99.90;;;;;;6224797;23;20002;-90
2023/04/17 12:14:34;;;;;;;20.45;13.82;;;16.30;99.90;;;;;;6196281;23;20008;-92
2023/04/17 12:17:00;;;;;;;17.50;12.85;;;16.40;99.90;;;;;;6197037;23;20054;-92
2023/04/17 12:19:30;;;;;;;18.38;13.05;;;16.50;99.90;;;;;;6196478;23;20008;-92
2023/04/17 12:21:57;;;;;;;17.17;11.70;;;16.50;99.90;;;;;;6172971;23;20083;-91
2023/04/17 12:24:23;;;;;;;17.00;11.55;;;16.60;99.90;;;;;;6172418;23;20004;-92
2023/04/17 12:26:50;;;;;;;19.45;11.85;;;16.70;99.90;;;;;;6197030;23;20015;-90
2023/04/17 12:29:16;;;;;;;15.57;11.10;;;16.80;99.70;;;;;;6196421;23;20087;-85
2023/04/17 12:31:43;;;;;;;16.27;11.40;;;16.90;99.40;;;;;;6220390;23;20004;-86
2023/04/17 12:34:09;;;;;;;16.77;11.82;;;17.00;98.90;;;;;;6220295;23;20065;-84